Time;durP1;ratioP1;P1;durP2;ratioP2;P2;SDS_P1;SDS_P2;PMS_P1;PMS_P2;Temp;Humidity;BMP_temperature;BMP_pressure;BME280_temperature;BME280_humidity;BME280_pressure;Samples;Min_cycle;Max_cycle;Signal;HPM_P1;HPM_P2
2024/02/01 14:20:31;;;;;;;9.57;1.47;;;;;;;6.87;100.00;100980.09;5391550;53;98309;-77
2024/02/01 14:25:36;;;;;;;7.97;2.10;;;;;;;6.77;100.00;100988.07;5069489;54;1132332;-74
2024/02/01 14:30:42;;;;;;;13.22;4.10;;;;;;;7.16;100.00;100999.52;5092771;54;1136789;-79
2024/02/01 14:35:50;;;;;;;18.65;2.70;;;;;;;6.86;100.00;101009.47;5040480;55;1138784;-75
2024/02/01 14:40:55;;;;;;;15.80;2.57;;;;;;;6.63;100.00;101022.52;5079591;55;1138670;-76
2024/02/01 14:46:00;;;;;;;9.73;1.87;;;;;;;6.48;100.00;101014.14;5154334;55;1138950;-79
2024/02/01 14:51:06;;;;;;;13.23;2.60;;;;;;;6.37;100.00;101017.80;5221706;55;1136843;-76
2024/02/01 14:56:12;;;;;;;12.40;3.52;;;;;;;6.30;100.00;101019.88;5190589;55;1138755;-78
2024/02/01 15:01:19;;;;;;;16.67;5.28;;;;;;;6.26;100.00;101017.52;5170450;55;1138881;-78
2024/02/01 15:06:26;;;;;;;14.03;2.50;;;;;;;6.23;100.00;101032.11;5140035;55;1138827;-78
2024/02/01 15:11:33;;;;;;;17.03;3.37;;;;;;;6.18;100.00;101021.84;5154337;54;1138971;-78
2024/02/01 15:16:39;;;;;;;14.10;2.70;;;;;;;6.19;100.00;101025.31;5137782;54;1138635;-77
2024/02/01 15:21:45;;;;;;;7.37;2.67;;;;;;;6.16;100.00;101018.44;5128991;55;1138788;-78
2024/02/01 15:26:51;;;;;;;20.03;4.90;;;;;;;6.14;100.00;101026.00;5197048;55;1136738;-78
2024/02/01 15:31:57;;;;;;;21.97;4.13;;;;;;;6.08;100.00;101016.68;5211610;56;1138750;-78
2024/02/01 15:37:02;;;;;;;15.27;2.73;;;;;;;6.03;100.00;101021.30;5182252;55;1138725;-76
2024/02/01 15:42:09;;;;;;;21.00;3.73;;;;;;;6.03;100.00;101017.83;5186125;56;1138951;-78
2024/02/01 15:47:15;;;;;;;10.13;2.40;;;;;;;6.04;100.00;101021.69;5170889;55;1138687;-80
2024/02/01 15:52:21;;;;;;;15.38;3.05;;;;;;;6.03;100.00;101022.62;5224706;54;1138902;-78
2024/02/01 15:57:26;;;;;;;11.73;1.85;;;;;;;6.03;100.00;101011.27;5264417;53;1138773;-80
2024/02/01 16:02:32;;;;;;;19.63;3.30;;;;;;;6.02;100.00;101034.05;5119966;55;1138646;-77
2024/02/01 16:07:39;;;;;;;17.73;2.80;;;;;;;6.02;100.00;101035.36;5138628;55;1138547;-79
2024/02/01 16:12:44;;;;;;;10.75;2.92;;;;;;;6.00;100.00;101042.45;5147452;55;1138678;-80
2024/02/01 16:17:53;;;;;;;16.97;3.00;;;;;;;6.03;100.00;101059.38;5242334;54;1138667;-76
2024/02/01 16:22:58;;;;;;;24.10;5.77;;;;;;;6.02;100.00;101067.33;5215179;55;1138548;-83
2024/02/01 16:28:07;;;;;;;16.83;4.20;;;;;;;5.97;100.00;101079.36;5232948;55;1138559;-74
2024/02/01 16:33:21;;;;;;;16.05;4.50;;;;;;;5.89;100.00;101088.95;5192665;55;1139123;-78
2024/02/01 16:38:31;;;;;;;11.33;2.90;;;;;;;5.68;100.00;101075.97;5202633;54;1138458;-75
2024/02/01 16:43:41;;;;;;;12.90;2.97;;;;;;;5.51;100.00;101071.07;5200110;55;1138577;-78
2024/02/01 16:48:47;;;;;;;44.70;15.23;;;;;;;5.41;100.00;101058.02;5229768;55;1138521;-79
2024/02/01 16:53:53;;;;;;;14.90;3.33;;;;;;;5.44;100.00;101085.88;5199458;55;1141087;-77
2024/02/01 16:59:00;;;;;;;15.77;3.87;;;;;;;5.42;100.00;101068.05;5124719;56;1138671;-78
2024/02/01 17:04:13;;;;;;;24.75;4.72;;;;;;;5.44;100.00;101072.30;5218423;55;1138681;-79
2024/02/01 17:09:22;;;;;;;15.17;3.57;;;;;;;5.43;100.00;101069.29;5212585;55;1138754;-79
2024/02/01 17:14:34;;;;;;;18.77;3.37;;;;;;;5.44;100.00;101063.13;5159686;55;1138744;-75
2024/02/01 17:19:43;;;;;;;17.87;3.25;;;;;;;5.43;100.00;101092.89;5191336;55;1138841;-74
2024/02/01 17:24:49;;;;;;;15.47;3.00;;;;;;;5.41;100.00;101082.94;5249852;54;1139077;-81
2024/02/01 17:29:56;;;;;;;15.83;2.43;;;;;;;5.46;100.00;101083.58;5236398;54;1138766;-82
2024/02/01 17:35:06;;;;;;;19.10;3.47;;;;;;;5.46;100.00;101084.89;5237554;55;1138768;-81
2024/02/01 17:40:19;;;;;;;15.53;3.00;;;;;;;5.46;100.00;101095.84;5257572;55;1138848;-78
2024/02/01 17:45:36;;;;;;;14.30;3.67;;;;;;;5.43;100.00;101106.47;5237957;55;1138651;-76
2024/02/01 17:50:45;;;;;;;17.07;4.23;;;;;;;5.40;100.00;101107.92;5237712;55;1138740;-82
2024/02/01 17:55:56;;;;;;;15.43;4.43;;;;;;;5.36;100.00;101121.63;5237103;55;1138725;-80
2024/02/01 18:01:03;;;;;;;11.57;2.33;;;;;;;5.36;100.00;101119.01;5253517;54;1138860;-79
2024/02/01 18:06:12;;;;;;;16.70;4.23;;;;;;;5.34;100.00;101123.96;5236836;55;1139002;-79
2024/02/01 18:11:18;;;;;;;16.10;3.67;;;;;;;5.36;100.00;101119.47;5237235;55;1138822;-78
2024/02/01 18:16:27;;;;;;;11.53;3.30;;;;;;;5.33;100.00;101115.70;5258124;55;1138922;-79
2024/02/01 18:21:34;;;;;;;15.85;3.98;;;;;;;5.28;100.00;101120.69;5237413;55;1138625;-76
2024/02/01 18:26:41;;;;;;;12.88;2.62;;;;;;;5.34;100.00;101134.45;5214614;55;1138691;-82
2024/02/01 18:31:46;;;;;;;21.17;4.53;;;;;;;5.38;100.00;101128.97;5227619;55;1138452;-81
2024/02/01 18:36:55;;;;;;;16.23;3.43;;;;;;;5.41;100.00;101135.39;5186859;55;1138741;-76
2024/02/01 18:42:01;;;;;;;20.47;3.83;;;;;;;5.43;100.00;101131.39;5189868;55;1138501;-79
2024/02/01 18:47:11;;;;;;;17.13;5.73;;;;;;;5.41;100.00;101132.77;5139827;56;1138710;-78
2024/02/01 18:52:17;;;;;;;19.77;3.77;;;;;;;5.43;100.00;101144.51;5115292;56;1138596;-79
2024/02/01 18:57:35;;;;;;;20.50;4.60;;;;;;;5.37;100.00;101144.31;5124328;56;1138590;-83
2024/02/01 19:02:48;;;;;;;19.20;3.60;;;;;;;5.30;100.00;101143.77;5175748;55;1138812;-80
2024/02/01 19:07:58;;;;;;;26.53;3.50;;;;;;;5.27;100.00;101145.22;5227610;55;1138525;-78
2024/02/01 19:13:03;;;;;;;15.00;2.87;;;;;;;5.16;100.00;101155.80;5207301;55;1138859;-81
2024/02/01 19:18:17;;;;;;;19.10;3.40;;;;;;;5.04;100.00;101162.42;5207140;55;1138610;-79
2024/02/01 19:23:26;;;;;;;16.25;3.45;;;;;;;4.89;100.00;101161.33;5190440;55;1138549;-81
2024/02/01 19:28:47;;;;;;;28.25;4.37;;;;;;;4.79;100.00;101163.97;5162488;55;1138887;-79
2024/02/01 19:34:02;;;;;;;17.17;3.87;;;;;;;4.77;100.00;101174.97;5137974;55;1138580;-80
2024/02/01 19:39:13;;;;;;;20.23;2.60;;;;;;;4.75;100.00;101158.46;5169363;55;1138522;-78
2024/02/01 19:44:19;;;;;;;21.73;5.80;;;;;;;4.77;100.00;101163.64;5145043;55;1138826;-81
2024/02/01 19:49:24;;;;;;;22.60;3.27;;;;;;;4.73;100.00;101166.88;5140842;55;1138705;-81
2024/02/01 19:54:30;;;;;;;19.90;4.97;;;;;;;4.52;100.00;101188.73;5165374;55;1139096;-78
2024/02/01 19:59:35;;;;;;;23.97;4.90;;;;;;;4.38;100.00;101192.39;5147194;55;1139359;-83
2024/02/01 20:04:42;;;;;;;14.87;4.10;;;;;;;4.27;100.00;101202.00;5148965;54;1138914;-81
2024/02/01 20:09:52;;;;;;;20.13;3.37;;;;;;;4.19;100.00;101202.30;5160560;55;1138949;-78
2024/02/01 20:14:55;;;;;;;19.77;3.60;;;;;;;4.13;100.00;101202.52;5152733;55;1138690;-78
2024/02/01 20:20:01;;;;;;;21.63;3.90;;;;;;;4.09;100.00;101203.59;5152399;56;1138454;-78
2024/02/01 20:25:11;;;;;;;19.60;5.23;;;;;;;4.10;100.00;101209.67;5171644;56;1138644;-77
2024/02/01 20:30:20;;;;;;;22.57;5.23;;;;;;;4.10;100.00;101208.37;5186687;54;1258992;-76
2024/02/01 20:35:27;;;;;;;25.60;12.67;;;;;;;4.11;100.00;101210.92;5199624;55;1138606;-82
2024/02/01 20:40:39;;;;;;;28.07;6.87;;;;;;;4.12;100.00;101217.02;5139220;55;1140872;-77
2024/02/01 20:45:53;;;;;;;36.87;6.37;;;;;;;4.10;100.00;101226.23;5231654;55;1138947;-81
2024/02/01 20:50:59;;;;;;;16.37;4.47;;;;;;;4.11;100.00;101231.87;5200005;54;1138601;-78
2024/02/01 20:56:05;;;;;;;16.13;4.17;;;;;;;4.17;100.00;101234.67;5204546;55;1138836;-76
2024/02/01 21:01:18;;;;;;;16.23;4.47;;;;;;;4.17;100.00;101234.67;5232137;55;1138839;-75
2024/02/01 21:06:24;;;;;;;22.50;6.37;;;;;;;4.20;100.00;101238.48;5207532;55;1138771;-78
2024/02/01 21:11:50;;;;;;;22.90;4.55;;;;;;;4.21;100.00;101233.66;5208175;55;1138803;-77
2024/02/01 21:16:57;;;;;;;14.43;3.93;;;;;;;4.22;100.00;101229.66;5184705;54;1138768;-81
2024/02/01 21:22:02;;;;;;;16.77;3.60;;;;;;;4.23;100.00;101231.38;5129035;55;1138835;-81
2024/02/01 21:27:15;;;;;;;17.13;3.23;;;;;;;4.22;100.00;101236.21;5208706;55;1138894;-81
2024/02/01 21:32:21;;;;;;;;;;;;;;;4.26;100.00;101236.09;5220270;55;1139046;-81
2024/02/01 21:37:26;;;;;;;28.57;4.62;;;;;;;4.31;100.00;101240.21;5254925;55;974157;-81
2024/02/01 21:42:56;;;;;;;23.23;3.47;;;;;;;4.32;100.00;101246.30;5207224;54;1145019;-81
2024/02/01 21:48:02;;;;;;;16.87;3.13;;;;;;;4.33;100.00;101249.32;5146761;55;1138529;-81
2024/02/01 21:53:08;;;;;;;19.77;4.37;;;;;;;4.37;100.00;101249.60;5166640;54;1138669;-81
2024/02/01 21:58:14;;;;;;;15.87;3.90;;;;;;;4.42;100.00;101259.45;5214618;54;1138667;-81
2024/02/01 22:03:20;;;;;;;22.20;3.60;;;;;;;4.43;100.00;101261.97;5211374;54;1138756;-81
2024/02/01 22:08:25;;;;;;;20.60;3.83;;;;;;;4.48;100.00;101253.48;5156648;55;1138915;-81
2024/02/01 22:13:31;;;;;;;21.43;4.13;;;;;;;4.50;100.00;101269.99;5115676;55;1138636;-80
2024/02/01 22:18:37;;;;;;;25.20;5.50;;;;;;;4.51;100.00;101272.16;5168607;54;1138322;-81
2024/02/01 22:23:42;;;;;;;18.00;4.33;;;;;;;4.51;100.00;101281.33;5229228;54;1139287;-81
2024/02/01 22:28:48;;;;;;;14.10;2.77;;;;;;;4.52;100.00;101291.74;5227034;54;1138776;-80
2024/02/01 22:33:53;;;;;;;23.60;5.27;;;;;;;4.51;100.00;101284.80;5216901;54;1138704;-80
2024/02/01 22:38:59;;;;;;;25.43;5.80;;;;;;;4.52;100.00;101289.12;5197938;54;1138873;-80
2024/02/01 22:44:04;;;;;;;24.33;4.73;;;;;;;4.50;100.00;101281.78;5235556;54;1138471;-80
2024/02/01 22:49:10;;;;;;;12.50;2.47;;;;;;;4.52;100.00;101290.44;5234414;54;1138731;-80
2024/02/01 22:54:16;;;;;;;21.73;3.77;;;;;;;4.50;100.00;101302.73;5234342;54;1138602;-80
2024/02/01 22:59:22;;;;;;;26.73;5.40;;;;;;;4.51;100.00;101310.99;5254621;54;1138765;-80
2024/02/01 23:04:27;;;;;;;13.63;2.47;;;;;;;4.51;100.00;101303.59;5234322;54;1138727;-80
2024/02/01 23:09:33;;;;;;;14.30;3.42;;;;;;;4.49;100.00;101310.65;5234251;54;1138859;-80
2024/02/01 23:14:38;;;;;;;28.70;5.60;;;;;;;4.49;100.00;101314.13;5234875;54;1138945;-80
2024/02/01 23:19:45;;;;;;;23.87;4.73;;;;;;;4.50;100.00;101314.52;5254470;54;1138699;-80
2024/02/01 23:24:51;;;;;;;16.23;3.97;;;;;;;4.48;100.00;101316.80;5237081;54;1138497;-80
2024/02/01 23:29:57;;;;;;;26.70;5.43;;;;;;;4.48;100.00;101320.73;5328530;54;1138817;-80
2024/02/01 23:35:04;;;;;;;11.13;3.43;;;;;;;4.49;100.00;101314.58;5216294;54;1139032;-80
2024/02/01 23:40:10;;;;;;;16.43;3.97;;;;;;;4.46;100.00;101316.86;5198598;54;1138734;-80
2024/02/01 23:45:16;;;;;;;24.30;3.53;;;;;;;4.45;100.00;101312.53;5172150;55;1138342;-80
2024/02/01 23:50:22;;;;;;;22.53;3.43;;;;;;;4.45;100.00;101315.15;5210194;55;1138689;-80
2024/02/01 23:55:27;;;;;;;25.97;3.62;;;;;;;4.45;100.00;101315.15;5189126;55;1138711;-81
